sensor_id;sensor_type;location;lat;lon;timestamp;pressure;altitude;pressure_sealevel;temperature;humidity
26859;BME280;14429;48.346;16.338;2023-02-15T00:02:08;101497.16;;;8.28;53.69
26859;BME280;14429;48.346;16.338;2023-02-15T00:04:33;101505.28;;;8.77;53.09
26859;BME280;14429;48.346;16.338;2023-02-15T00:06:58;101509.13;;;8.94;52.77
26859;BME280;14429;48.346;16.338;2023-02-15T00:09:24;101493.09;;;8.96;52.54
26859;BME280;14429;48.346;16.338;2023-02-15T00:11:49;101498.84;;;9.10;52.05
26859;BME280;14429;48.346;16.338;2023-02-15T00:14:16;101501.44;;;9.11;52.15
26859;BME280;14429;48.346;16.338;2023-02-15T00:16:43;101503.13;;;9.14;52.13
26859;BME280;14429;48.346;16.338;2023-02-15T00:19:10;101503.03;;;9.16;51.72
26859;BME280;14429;48.346;16.338;2023-02-15T00:21:37;101492.13;;;9.24;51.65
26859;BME280;14429;48.346;16.338;2023-02-15T00:24:05;101486.38;;;9.36;51.25
26859;BME280;14429;48.346;16.338;2023-02-15T00:26:31;101486.28;;;9.39;51.26
26859;BME280;14429;48.346;16.338;2023-02-15T00:28:57;101494.56;;;9.30;51.56
26859;BME280;14429;48.346;16.338;2023-02-15T00:31:22;101493.63;;;9.07;51.01
26859;BME280;14429;48.346;16.338;2023-02-15T00:33:49;101489.59;;;8.95;51.25
26859;BME280;14429;48.346;16.338;2023-02-15T00:36:14;101495.19;;;9.12;51.71
26859;BME280;14429;48.346;16.338;2023-02-15T00:38:40;101487.41;;;9.32;51.49
26859;BME280;14429;48.346;16.338;2023-02-15T00:41:06;101486.28;;;9.39;51.11
26859;BME280;14429;48.346;16.338;2023-02-15T00:43:33;101486.31;;;9.37;51.03
26859;BME280;14429;48.346;16.338;2023-02-15T00:45:59;101490.88;;;9.34;51.29
26859;BME280;14429;48.346;16.338;2023-02-15T00:48:24;101476.31;;;9.43;51.00
26859;BME280;14429;48.346;16.338;2023-02-15T00:50:54;101480.72;;;9.44;50.96
26859;BME280;14429;48.346;16.338;2023-02-15T00:53:21;101477.00;;;9.48;50.78
26859;BME280;14429;48.346;16.338;2023-02-15T00:55:47;101472.63;;;9.47;50.81
26859;BME280;14429;48.346;16.338;2023-02-15T00:58:14;101478.03;;;9.46;50.87
26859;BME280;14429;48.346;16.338;2023-02-15T01:00:40;101481.47;;;9.48;50.78
26859;BME280;14429;48.346;16.338;2023-02-15T01:03:07;101469.00;;;9.50;50.58
26859;BME280;14429;48.346;16.338;2023-02-15T01:05:32;101464.53;;;9.50;50.72
26859;BME280;14429;48.346;16.338;2023-02-15T01:07:59;101473.41;;;9.49;50.94
26859;BME280;14429;48.346;16.338;2023-02-15T01:10:26;101464.44;;;9.53;50.78
26859;BME280;14429;48.346;16.338;2023-02-15T01:12:52;101465.31;;;9.52;50.60
26859;BME280;14429;48.346;16.338;2023-02-15T01:15:18;101457.34;;;9.52;50.72
26859;BME280;14429;48.346;16.338;2023-02-15T01:17:44;101461.81;;;9.52;50.77
26859;BME280;14429;48.346;16.338;2023-02-15T01:20:10;101462.72;;;9.51;50.62
26859;BME280;14429;48.346;16.338;2023-02-15T01:22:35;101456.59;;;9.49;50.73
26859;BME280;14429;48.346;16.338;2023-02-15T01:25:03;101454.91;;;9.46;50.69
26859;BME280;14429;48.346;16.338;2023-02-15T01:27:28;101446.88;;;9.48;50.70
26859;BME280;14429;48.346;16.338;2023-02-15T01:29:54;101447.69;;;9.50;50.69
26859;BME280;14429;48.346;16.338;2023-02-15T01:32:19;101438.13;;;9.44;50.88
26859;BME280;14429;48.346;16.338;2023-02-15T01:34:45;101442.47;;;9.47;50.62
26859;BME280;14429;48.346;16.338;2023-02-15T01:37:10;101438.22;;;9.41;50.60
26859;BME280;14429;48.346;16.338;2023-02-15T01:39:35;101441.50;;;9.25;50.94
26859;BME280;14429;48.346;16.338;2023-02-15T01:42:02;101434.22;;;9.30;51.05
26859;BME280;14429;48.346;16.338;2023-02-15T01:44:52;101439.44;;;9.33;51.23
26859;BME280;14429;48.346;16.338;2023-02-15T01:47:22;101422.38;;;9.39;51.06
26859;BME280;14429;48.346;16.338;2023-02-15T01:49:49;101426.03;;;9.36;50.86
26859;BME280;14429;48.346;16.338;2023-02-15T01:52:19;101425.75;;;9.43;50.77
26859;BME280;14429;48.346;16.338;2023-02-15T01:54:45;101425.84;;;9.41;50.77
26859;BME280;14429;48.346;16.338;2023-02-15T01:57:16;101430.38;;;8.65;50.01
26859;BME280;14429;48.346;16.338;2023-02-15T01:59:46;101432.91;;;8.15;53.08
26859;BME280;14429;48.346;16.338;2023-02-15T02:02:14;101425.41;;;8.80;52.54
26859;BME280;14429;48.346;16.338;2023-02-15T02:04:45;101420.31;;;8.98;51.98
26859;BME280;14429;48.346;16.338;2023-02-15T02:07:14;101418.03;;;8.62;50.12
26859;BME280;14429;48.346;16.338;2023-02-15T02:09:41;101426.06;;;8.87;52.23
26859;BME280;14429;48.346;16.338;2023-02-15T02:12:08;101418.38;;;9.03;51.88
26859;BME280;14429;48.346;16.338;2023-02-15T02:14:36;101408.38;;;9.10;51.82
26859;BME280;14429;48.346;16.338;2023-02-15T02:17:06;101401.28;;;9.10;51.62
26859;BME280;14429;48.346;16.338;2023-02-15T02:19:52;101401.88;;;9.18;51.57
26859;BME280;14429;48.346;16.338;2023-02-15T02:22:46;101393.09;;;9.16;51.57
26859;BME280;14429;48.346;16.338;2023-02-15T02:28:40;101396.34;;;9.24;51.42
26859;BME280;14429;48.346;16.338;2023-02-15T02:31:35;101393.66;;;9.24;51.21
26859;BME280;14429;48.346;16.338;2023-02-15T02:34:08;101410.53;;;9.23;51.21
26859;BME280;14429;48.346;16.338;2023-02-15T02:36:41;101396.19;;;9.27;51.13
26859;BME280;14429;48.346;16.338;2023-02-15T02:39:22;101396.09;;;9.30;51.10
26859;BME280;14429;48.346;16.338;2023-02-15T02:41:56;101392.38;;;9.34;51.03
26859;BME280;14429;48.346;16.338;2023-02-15T02:44:27;101394.31;;;9.06;50.57
26859;BME280;14429;48.346;16.338;2023-02-15T02:46:57;101395.34;;;9.26;51.13
26859;BME280;14429;48.346;16.338;2023-02-15T02:49:33;101383.72;;;9.29;51.18
26859;BME280;14429;48.346;16.338;2023-02-15T02:51:59;101388.81;;;9.35;51.05
26859;BME280;14429;48.346;16.338;2023-02-15T02:54:25;101390.56;;;9.36;51.02
26859;BME280;14429;48.346;16.338;2023-02-15T02:56:52;101380.88;;;9.33;50.69
26859;BME280;14429;48.346;16.338;2023-02-15T02:59:24;101377.41;;;9.31;51.06
26859;BME280;14429;48.346;16.338;2023-02-15T03:01:55;101376.66;;;9.28;51.02
26859;BME280;14429;48.346;16.338;2023-02-15T03:04:25;101374.91;;;9.27;51.23
26859;BME280;14429;48.346;16.338;2023-02-15T03:06:57;101378.28;;;9.32;51.08
26859;BME280;14429;48.346;16.338;2023-02-15T03:09:27;101376.22;;;9.40;50.69
26859;BME280;14429;48.346;16.338;2023-02-15T03:11:53;101376.22;;;9.40;50.83
26859;BME280;14429;48.346;16.338;2023-02-15T03:14:19;101374.41;;;9.40;50.60
26859;BME280;14429;48.346;16.338;2023-02-15T03:16:46;101379.81;;;9.39;50.66
26859;BME280;14429;48.346;16.338;2023-02-15T03:19:15;101377.94;;;9.41;50.87
26859;BME280;14429;48.346;16.338;2023-02-15T03:21:45;101372.59;;;9.41;50.76
26859;BME280;14429;48.346;16.338;2023-02-15T03:24:15;101370.03;;;9.39;50.78
26859;BME280;14429;48.346;16.338;2023-02-15T03:26:43;101378.88;;;9.40;50.47
26859;BME280;14429;48.346;16.338;2023-02-15T03:29:11;101383.63;;;9.32;50.78
26859;BME280;14429;48.346;16.338;2023-02-15T03:31:40;101379.16;;;9.32;50.87
26859;BME280;14429;48.346;16.338;2023-02-15T03:34:10;101387.09;;;8.86;49.04
26859;BME280;14429;48.346;16.338;2023-02-15T03:36:42;101377.53;;;8.80;51.70
26859;BME280;14429;48.346;16.338;2023-02-15T03:39:15;101365.88;;;8.84;51.57
26859;BME280;14429;48.346;16.338;2023-02-15T03:41:48;101365.72;;;9.13;51.25
26859;BME280;14429;48.346;16.338;2023-02-15T03:44:18;101376.78;;;9.25;51.26
26859;BME280;14429;48.346;16.338;2023-02-15T03:46:52;101371.34;;;9.28;50.78
26859;BME280;14429;48.346;16.338;2023-02-15T03:49:23;101369.47;;;9.30;50.88
26859;BME280;14429;48.346;16.338;2023-02-15T03:51:51;101371.66;;;9.19;50.91
26859;BME280;14429;48.346;16.338;2023-02-15T03:54:24;101377.63;;;9.25;50.92
26859;BME280;14429;48.346;16.338;2023-02-15T03:56:50;101369.38;;;9.33;50.74
26859;BME280;14429;48.346;16.338;2023-02-15T03:59:15;101366.03;;;9.28;50.81
26859;BME280;14429;48.346;16.338;2023-02-15T04:01:54;101371.78;;;9.16;50.64
26859;BME280;14429;48.346;16.338;2023-02-15T04:04:28;101369.81;;;9.21;51.21
26859;BME280;14429;48.346;16.338;2023-02-15T04:06:55;101377.63;;;9.25;50.94
26859;BME280;14429;48.346;16.338;2023-02-15T04:09:22;101371.19;;;9.31;50.89
26859;BME280;14429;48.346;16.338;2023-02-15T04:11:47;101379.44;;;9.25;50.89
26859;BME280;14429;48.346;16.338;2023-02-15T04:14:13;101387.66;;;8.95;51.11
26859;BME280;14429;48.346;16.338;2023-02-15T04:16:38;101383.34;;;9.15;51.12
26859;BME280;14429;48.346;16.338;2023-02-15T04:19:04;101374.09;;;9.25;51.05
26859;BME280;14429;48.346;16.338;2023-02-15T04:21:30;101380.13;;;9.30;50.71
26859;BME280;14429;48.346;16.338;2023-02-15T04:23:55;101376.88;;;9.22;50.90
26859;BME280;14429;48.346;16.338;2023-02-15T04:26:22;101369.72;;;9.24;50.98
26859;BME280;14429;48.346;16.338;2023-02-15T04:28:48;101376.66;;;9.28;50.83
26859;BME280;14429;48.346;16.338;2023-02-15T04:31:13;101376.53;;;9.31;50.67
26859;BME280;14429;48.346;16.338;2023-02-15T04:33:38;101369.59;;;9.27;50.82
26859;BME280;14429;48.346;16.338;2023-02-15T04:36:05;101373.75;;;9.34;51.04
26859;BME280;14429;48.346;16.338;2023-02-15T04:38:30;101366.63;;;9.34;50.52
26859;BME280;14429;48.346;16.338;2023-02-15T04:40:55;101367.66;;;9.32;50.76
26859;BME280;14429;48.346;16.338;2023-02-15T04:43:22;101365.78;;;9.34;50.63
26859;BME280;14429;48.346;16.338;2023-02-15T04:45:48;101374.59;;;9.36;50.85
26859;BME280;14429;48.346;16.338;2023-02-15T04:48:14;101365.78;;;9.34;50.63
26859;BME280;14429;48.346;16.338;2023-02-15T04:50:39;101369.25;;;9.36;51.02
26859;BME280;14429;48.346;16.338;2023-02-15T04:53:05;101367.66;;;9.32;50.73
26859;BME280;14429;48.346;16.338;2023-02-15T04:55:30;101373.94;;;8.57;48.61
26859;BME280;14429;48.346;16.338;2023-02-15T04:57:55;101371.34;;;8.80;51.25
26859;BME280;14429;48.346;16.338;2023-02-15T05:00:22;101380.69;;;7.87;51.36
26859;BME280;14429;48.346;16.338;2023-02-15T05:02:48;101367.94;;;8.51;50.79
26859;BME280;14429;48.346;16.338;2023-02-15T05:05:13;101369.53;;;8.56;51.98
26859;BME280;14429;48.346;16.338;2023-02-15T05:07:39;101368.88;;;8.75;52.39
26859;BME280;14429;48.346;16.338;2023-02-15T05:10:05;101371.03;;;8.88;52.12
26859;BME280;14429;48.346;16.338;2023-02-15T05:12:30;101370.31;;;8.84;51.29
26859;BME280;14429;48.346;16.338;2023-02-15T05:14:56;101367.44;;;8.89;51.78
26859;BME280;14429;48.346;16.338;2023-02-15T05:17:23;101374.63;;;8.88;51.89
26859;BME280;14429;48.346;16.338;2023-02-15T05:19:48;101372.16;;;8.82;51.84
26859;BME280;14429;48.346;16.338;2023-02-15T05:22:14;101370.00;;;8.92;51.55
26859;BME280;14429;48.346;16.338;2023-02-15T05:24:39;101370.47;;;9.03;51.61
26859;BME280;14429;48.346;16.338;2023-02-15T05:27:04;101375.47;;;9.12;51.43
26859;BME280;14429;48.346;16.338;2023-02-15T05:29:30;101378.75;;;8.46;50.13
26859;BME280;14429;48.346;16.338;2023-02-15T05:31:55;101368.50;;;8.60;51.25
26859;BME280;14429;48.346;16.338;2023-02-15T05:34:22;101373.94;;;8.81;52.03
26859;BME280;14429;48.346;16.338;2023-02-15T05:36:47;101380.22;;;8.79;51.84
26859;BME280;14429;48.346;16.338;2023-02-15T05:39:13;101382.50;;;8.14;51.86
26859;BME280;14429;48.346;16.338;2023-02-15T05:41:38;101374.84;;;8.56;52.64
26859;BME280;14429;48.346;16.338;2023-02-15T05:44:04;101377.53;;;8.02;50.99
26859;BME280;14429;48.346;16.338;2023-02-15T05:46:29;101381.69;;;8.37;51.23
26859;BME280;14429;48.346;16.338;2023-02-15T05:48:55;101374.03;;;8.54;52.73
26859;BME280;14429;48.346;16.338;2023-02-15T05:51:22;101376.00;;;8.73;52.19
26859;BME280;14429;48.346;16.338;2023-02-15T05:53:47;101371.06;;;8.37;50.89
26859;BME280;14429;48.346;16.338;2023-02-15T05:56:13;101385.00;;;8.45;51.29
26859;BME280;14429;48.346;16.338;2023-02-15T05:58:40;101384.03;;;8.21;52.33
26859;BME280;14429;48.346;16.338;2023-02-15T06:01:09;101388.63;;;8.41;52.38
26859;BME280;14429;48.346;16.338;2023-02-15T06:03:35;101381.94;;;8.56;52.20
26859;BME280;14429;48.346;16.338;2023-02-15T06:06:00;101383.22;;;8.44;51.74
26859;BME280;14429;48.346;16.338;2023-02-15T06:08:27;101394.25;;;8.33;51.13
26859;BME280;14429;48.346;16.338;2023-02-15T06:10:52;101389.75;;;8.60;52.08
26859;BME280;14429;48.346;16.338;2023-02-15T06:13:18;101389.47;;;8.69;52.46
26859;BME280;14429;48.346;16.338;2023-02-15T06:15:43;101388.94;;;8.84;51.83
26859;BME280;14429;48.346;16.338;2023-02-15T06:18:08;101390.59;;;8.86;52.06
26859;BME280;14429;48.346;16.338;2023-02-15T06:20:34;101396.94;;;7.77;51.45
26859;BME280;14429;48.346;16.338;2023-02-15T06:22:59;101393.78;;;7.65;52.33
26859;BME280;14429;48.346;16.338;2023-02-15T06:25:26;101404.66;;;7.84;52.19
26859;BME280;14429;48.346;16.338;2023-02-15T06:27:51;101397.84;;;8.32;53.10
26859;BME280;14429;48.346;16.338;2023-02-15T06:30:17;101406.84;;;8.28;52.78
26859;BME280;14429;48.346;16.338;2023-02-15T06:32:43;101405.66;;;8.36;53.08
26859;BME280;14429;48.346;16.338;2023-02-15T06:35:08;101405.38;;;8.18;52.59
26859;BME280;14429;48.346;16.338;2023-02-15T06:37:33;101409.28;;;8.33;52.92
26859;BME280;14429;48.346;16.338;2023-02-15T06:39:59;101400.72;;;7.97;51.49
26859;BME280;14429;48.346;16.338;2023-02-15T06:42:26;101399.88;;;7.95;52.86
26859;BME280;14429;48.346;16.338;2023-02-15T06:44:51;101390.81;;;8.02;52.79
26859;BME280;14429;48.346;16.338;2023-02-15T06:47:16;101394.56;;;8.24;53.05
26859;BME280;14429;48.346;16.338;2023-02-15T06:49:42;101397.16;;;7.70;52.74
26859;BME280;14429;48.346;16.338;2023-02-15T06:52:07;101394.97;;;7.55;52.94
26859;BME280;14429;48.346;16.338;2023-02-15T06:54:33;101400.19;;;7.58;53.74
26859;BME280;14429;48.346;16.338;2023-02-15T06:56:58;101398.56;;;7.81;53.66
26859;BME280;14429;48.346;16.338;2023-02-15T06:59:25;101398.41;;;7.87;54.66
26859;BME280;14429;48.346;16.338;2023-02-15T07:01:51;101398.38;;;7.60;53.30
26859;BME280;14429;48.346;16.338;2023-02-15T07:04:16;101392.41;;;8.09;54.24
26859;BME280;14429;48.346;16.338;2023-02-15T07:06:41;101390.06;;;7.70;52.74
26859;BME280;14429;48.346;16.338;2023-02-15T07:09:07;101379.56;;;7.94;53.96
26859;BME280;14429;48.346;16.338;2023-02-15T07:11:33;101387.59;;;7.36;53.63
26859;BME280;14429;48.346;16.338;2023-02-15T07:13:58;101386.03;;;7.29;54.74
26859;BME280;14429;48.346;16.338;2023-02-15T07:16:25;101388.28;;;7.42;53.54
26859;BME280;14429;48.346;16.338;2023-02-15T07:18:50;101387.56;;;7.66;55.03
26859;BME280;14429;48.346;16.338;2023-02-15T07:21:16;101389.09;;;7.44;53.54
26859;BME280;14429;48.346;16.338;2023-02-15T07:23:41;101390.41;;;7.60;54.35
26859;BME280;14429;48.346;16.338;2023-02-15T07:26:07;101386.97;;;7.56;54.52
26859;BME280;14429;48.346;16.338;2023-02-15T07:28:33;101384.97;;;7.63;54.41
26859;BME280;14429;48.346;16.338;2023-02-15T07:31:00;101382.41;;;8.17;54.10
26859;BME280;14429;48.346;16.338;2023-02-15T07:33:27;101386.31;;;7.77;52.48
26859;BME280;14429;48.346;16.338;2023-02-15T07:35:54;101387.28;;;7.75;54.38
26859;BME280;14429;48.346;16.338;2023-02-15T07:38:20;101396.97;;;7.47;53.81
26859;BME280;14429;48.346;16.338;2023-02-15T07:40:47;101385.53;;;7.74;53.50
26859;BME280;14429;48.346;16.338;2023-02-15T07:43:13;101388.75;;;7.56;53.66
26859;BME280;14429;48.346;16.338;2023-02-15T07:45:39;101390.63;;;7.53;54.71
26859;BME280;14429;48.346;16.338;2023-02-15T07:48:05;101385.63;;;7.71;54.51
26859;BME280;14429;48.346;16.338;2023-02-15T07:50:32;101391.25;;;7.89;54.70
26859;BME280;14429;48.346;16.338;2023-02-15T07:52:58;101396.59;;;7.87;52.76
26859;BME280;14429;48.346;16.338;2023-02-15T07:55:26;101391.00;;;7.96;52.93
26859;BME280;14429;48.346;16.338;2023-02-15T07:57:51;101390.03;;;7.72;52.68
26859;BME280;14429;48.346;16.338;2023-02-15T08:00:18;101393.13;;;7.85;53.75
26859;BME280;14429;48.346;16.338;2023-02-15T08:02:47;101394.66;;;7.92;52.68
26859;BME280;14429;48.346;16.338;2023-02-15T08:05:13;101396.16;;;7.74;53.17
26859;BME280;14429;48.346;16.338;2023-02-15T08:07:39;101388.72;;;7.84;53.32
26859;BME280;14429;48.346;16.338;2023-02-15T08:10:06;101396.34;;;7.68;53.16
26859;BME280;14429;48.346;16.338;2023-02-15T08:12:31;101393.88;;;7.90;52.95
26859;BME280;14429;48.346;16.338;2023-02-15T08:14:57;101393.31;;;7.79;53.49
26859;BME280;14429;48.346;16.338;2023-02-15T08:17:22;101389.09;;;7.73;53.17
26859;BME280;14429;48.346;16.338;2023-02-15T08:19:47;101392.31;;;7.83;53.43
26859;BME280;14429;48.346;16.338;2023-02-15T08:22:14;101390.34;;;7.61;54.41
26859;BME280;14429;48.346;16.338;2023-02-15T08:24:41;101392.13;;;7.61;54.63
26859;BME280;14429;48.346;16.338;2023-02-15T08:27:07;101389.28;;;7.67;54.17
26859;BME280;14429;48.346;16.338;2023-02-15T08:29:34;101388.03;;;8.08;54.05
26859;BME280;14429;48.346;16.338;2023-02-15T08:32:02;101386.47;;;7.73;52.96
26859;BME280;14429;48.346;16.338;2023-02-15T08:34:29;101388.34;;;7.96;53.15
26859;BME280;14429;48.346;16.338;2023-02-15T08:36:55;101386.91;;;7.86;53.18
26859;BME280;14429;48.346;16.338;2023-02-15T08:39:21;101383.63;;;7.79;52.83
26859;BME280;14429;48.346;16.338;2023-02-15T08:41:48;101382.31;;;7.63;54.40
26859;BME280;14429;48.346;16.338;2023-02-15T08:44:15;101381.47;;;8.18;53.49
26859;BME280;14429;48.346;16.338;2023-02-15T08:46:43;101378.91;;;8.15;53.72
26859;BME280;14429;48.346;16.338;2023-02-15T08:49:09;101385.38;;;8.08;53.94
26859;BME280;14429;48.346;16.338;2023-02-15T08:51:36;101380.88;;;7.53;53.80
26859;BME280;14429;48.346;16.338;2023-02-15T08:54:03;101378.19;;;7.81;54.24
26859;BME280;14429;48.346;16.338;2023-02-15T08:56:33;101379.88;;;8.39;53.24
26859;BME280;14429;48.346;16.338;2023-02-15T08:59:01;101366.66;;;8.62;52.71
26859;BME280;14429;48.346;16.338;2023-02-15T09:01:28;101368.63;;;8.81;52.22
26859;BME280;14429;48.346;16.338;2023-02-15T09:03:55;101376.94;;;8.96;51.78
26859;BME280;14429;48.346;16.338;2023-02-15T09:06:22;101360.38;;;8.88;51.65
26859;BME280;14429;48.346;16.338;2023-02-15T09:08:47;101376.31;;;8.90;51.61
26859;BME280;14429;48.346;16.338;2023-02-15T09:11:15;101378.72;;;8.96;51.42
26859;BME280;14429;48.346;16.338;2023-02-15T09:13:41;101372.09;;;9.07;51.26
26859;BME280;14429;48.346;16.338;2023-02-15T09:16:09;101368.66;;;9.05;51.11
26859;BME280;14429;48.346;16.338;2023-02-15T09:18:36;101376.13;;;8.94;51.54
26859;BME280;14429;48.346;16.338;2023-02-15T09:21:07;101374.19;;;8.99;50.43
26859;BME280;14429;48.346;16.338;2023-02-15T09:23:32;101372.13;;;8.83;51.45
26859;BME280;14429;48.346;16.338;2023-02-15T09:26:02;101376.94;;;8.72;51.86
26859;BME280;14429;48.346;16.338;2023-02-15T09:28:27;101364.50;;;8.73;51.98
26859;BME280;14429;48.346;16.338;2023-02-15T09:30:53;101372.31;;;8.53;52.04
26859;BME280;14429;48.346;16.338;2023-02-15T09:33:19;101361.63;;;8.79;51.67
26859;BME280;14429;48.346;16.338;2023-02-15T09:35:45;101360.63;;;8.83;51.17
26859;BME280;14429;48.346;16.338;2023-02-15T09:38:10;101368.88;;;8.24;51.85
26859;BME280;14429;48.346;16.338;2023-02-15T09:40:40;101367.09;;;8.25;51.99
26859;BME280;14429;48.346;16.338;2023-02-15T09:43:22;101371.69;;;8.20;53.35
26859;BME280;14429;48.346;16.338;2023-02-15T09:46:02;101365.13;;;8.55;52.52
26859;BME280;14429;48.346;16.338;2023-02-15T09:48:38;101364.38;;;8.52;51.58
26859;BME280;14429;48.346;16.338;2023-02-15T09:51:16;101361.16;;;8.68;51.95
26859;BME280;14429;48.346;16.338;2023-02-15T09:54:01;101358.78;;;8.59;51.33
26859;BME280;14429;48.346;16.338;2023-02-15T09:56:31;101354.81;;;8.46;51.50
26859;BME280;14429;48.346;16.338;2023-02-15T09:59:02;101375.53;;;8.87;51.63
26859;BME280;14429;48.346;16.338;2023-02-15T10:01:35;101359.84;;;9.03;51.33
26859;BME280;14429;48.346;16.338;2023-02-15T10:04:27;101367.19;;;8.47;51.25
26859;BME280;14429;48.346;16.338;2023-02-15T10:07:05;101366.75;;;8.59;50.75
26859;BME280;14429;48.346;16.338;2023-02-15T10:09:49;101358.84;;;8.82;51.61
26859;BME280;14429;48.346;16.338;2023-02-15T10:12:36;101354.44;;;9.05;51.75
26859;BME280;14429;48.346;16.338;2023-02-15T10:15:27;101360.53;;;8.60;50.74
26859;BME280;14429;48.346;16.338;2023-02-15T10:18:09;101350.72;;;8.62;52.08
26859;BME280;14429;48.346;16.338;2023-02-15T10:20:43;101347.38;;;9.05;51.22
26859;BME280;14429;48.346;16.338;2023-02-15T10:23:24;101357.22;;;8.78;51.42
26859;BME280;14429;48.346;16.338;2023-02-15T10:25:56;101353.34;;;8.38;52.19
26859;BME280;14429;48.346;16.338;2023-02-15T10:28:32;101349.75;;;8.64;52.24
26859;BME280;14429;48.346;16.338;2023-02-15T10:31:06;101343.13;;;8.76;51.40
26859;BME280;14429;48.346;16.338;2023-02-15T10:33:38;101343.97;;;8.52;51.81
26859;BME280;14429;48.346;16.338;2023-02-15T10:36:23;101344.09;;;8.49;52.86
26859;BME280;14429;48.346;16.338;2023-02-15T10:38:58;101338.34;;;8.61;52.04
26859;BME280;14429;48.346;16.338;2023-02-15T10:41:35;101330.81;;;8.49;52.70
26859;BME280;14429;48.346;16.338;2023-02-15T10:47:05;101343.34;;;8.19;53.57
26859;BME280;14429;48.346;16.338;2023-02-15T10:49:43;101337.84;;;8.25;53.31
26859;BME280;14429;48.346;16.338;2023-02-15T10:52:21;101332.56;;;8.49;53.21
26859;BME280;14429;48.346;16.338;2023-02-15T10:54:59;101329.19;;;8.45;52.32
26859;BME280;14429;48.346;16.338;2023-02-15T10:57:34;101317.00;;;8.13;53.88
26859;BME280;14429;48.346;16.338;2023-02-15T11:00:08;101318.28;;;8.00;53.39
26859;BME280;14429;48.346;16.338;2023-02-15T11:02:54;101313.03;;;8.26;53.23
26859;BME280;14429;48.346;16.338;2023-02-15T11:05:33;101309.84;;;8.40;53.45
26859;BME280;14429;48.346;16.338;2023-02-15T11:08:05;101303.94;;;8.33;52.01
26859;BME280;14429;48.346;16.338;2023-02-15T11:10:35;101296.69;;;8.61;52.64
26859;BME280;14429;48.346;16.338;2023-02-15T11:13:05;101295.09;;;8.56;51.61
26859;BME280;14429;48.346;16.338;2023-02-15T11:15:36;101294.81;;;8.39;53.07
26859;BME280;14429;48.346;16.338;2023-02-15T11:18:06;101292.00;;;8.20;52.81
26859;BME280;14429;48.346;16.338;2023-02-15T11:20:38;101298.84;;;8.51;53.29
26859;BME280;14429;48.346;16.338;2023-02-15T11:23:13;101297.41;;;8.89;51.99
26859;BME280;14429;48.346;16.338;2023-02-15T11:25:39;101292.97;;;8.89;51.94
26859;BME280;14429;48.346;16.338;2023-02-15T11:28:11;101289.31;;;8.69;51.63
26859;BME280;14429;48.346;16.338;2023-02-15T11:30:44;101292.78;;;8.47;51.73
26859;BME280;14429;48.346;16.338;2023-02-15T11:33:15;101286.81;;;8.65;52.04
26859;BME280;14429;48.346;16.338;2023-02-15T11:35:50;101285.25;;;8.82;52.01
26859;BME280;14429;48.346;16.338;2023-02-15T11:38:20;101287.84;;;9.08;51.41
26859;BME280;14429;48.346;16.338;2023-02-15T11:40:48;101283.78;;;8.75;51.88
26859;BME280;14429;48.346;16.338;2023-02-15T11:43:17;101273.03;;;8.54;51.39
26859;BME280;14429;48.346;16.338;2023-02-15T11:45:46;101269.28;;;8.84;52.07
26859;BME280;14429;48.346;16.338;2023-02-15T11:48:13;101274.47;;;8.64;51.16
26859;BME280;14429;48.346;16.338;2023-02-15T11:50:39;101268.25;;;8.88;51.85
26859;BME280;14429;48.346;16.338;2023-02-15T11:53:10;101277.50;;;8.54;52.29
26859;BME280;14429;48.346;16.338;2023-02-15T11:55:39;101265.44;;;8.68;51.33
26859;BME280;14429;48.346;16.338;2023-02-15T11:58:14;101268.78;;;8.73;51.38
26859;BME280;14429;48.346;16.338;2023-02-15T12:00:43;101263.81;;;8.64;51.47
26859;BME280;14429;48.346;16.338;2023-02-15T12:03:15;101268.16;;;8.42;52.57
26859;BME280;14429;48.346;16.338;2023-02-15T12:05:44;101262.25;;;8.09;52.93
26859;BME280;14429;48.346;16.338;2023-02-15T12:08:15;101258.47;;;8.16;52.98
26859;BME280;14429;48.346;16.338;2023-02-15T12:10:46;101250.44;;;8.41;53.41
26859;BME280;14429;48.346;16.338;2023-02-15T12:13:18;101249.78;;;8.11;53.33
26859;BME280;14429;48.346;16.338;2023-02-15T12:15:46;101251.56;;;7.58;55.16
26859;BME280;14429;48.346;16.338;2023-02-15T12:18:19;101238.34;;;7.83;54.99
26859;BME280;14429;48.346;16.338;2023-02-15T12:20:46;101246.44;;;7.52;55.34
26859;BME280;14429;48.346;16.338;2023-02-15T12:23:14;101245.75;;;7.47;55.83
26859;BME280;14429;48.346;16.338;2023-02-15T12:25:43;101232.31;;;7.79;55.43
26859;BME280;14429;48.346;16.338;2023-02-15T12:28:24;101246.50;;;8.03;54.84
26859;BME280;14429;48.346;16.338;2023-02-15T12:30:52;101240.00;;;8.13;54.43
26859;BME280;14429;48.346;16.338;2023-02-15T12:33:26;101231.41;;;8.31;53.49
26859;BME280;14429;48.346;16.338;2023-02-15T12:35:57;101235.50;;;8.39;53.60
26859;BME280;14429;48.346;16.338;2023-02-15T12:38:25;101231.31;;;8.79;52.46
26859;BME280;14429;48.346;16.338;2023-02-15T12:40:59;101224.53;;;8.72;52.36
26859;BME280;14429;48.346;16.338;2023-02-15T12:43:26;101222.28;;;8.60;52.63
26859;BME280;14429;48.346;16.338;2023-02-15T12:45:52;101223.78;;;8.68;52.82
26859;BME280;14429;48.346;16.338;2023-02-15T12:48:19;101219.13;;;8.51;52.97
26859;BME280;14429;48.346;16.338;2023-02-15T12:50:48;101211.09;;;8.03;54.18
26859;BME280;14429;48.346;16.338;2023-02-15T12:53:16;101222.59;;;8.03;54.93
26859;BME280;14429;48.346;16.338;2023-02-15T12:55:50;101205.88;;;8.25;53.93
26859;BME280;14429;48.346;16.338;2023-02-15T12:58:19;101212.06;;;8.26;54.44
26859;BME280;14429;48.346;16.338;2023-02-15T13:00:45;101200.91;;;8.16;53.99
26859;BME280;14429;48.346;16.338;2023-02-15T13:03:17;101210.50;;;8.44;53.49
26859;BME280;14429;48.346;16.338;2023-02-15T13:05:44;101196.03;;;8.29;53.34